createdAt,value
2019-01-03T00:01:55.894Z,1.00
2019-01-03T00:04:42.059Z,1.05
2019-01-03T00:07:28.269Z,1.00
2019-01-03T00:10:09.985Z,1.07
2019-01-03T00:12:45.998Z,1.57
2019-01-03T00:15:16.074Z,0.90
2019-01-03T00:18:01.562Z,1.52
2019-01-03T00:20:31.641Z,1.15
2019-01-03T00:23:17.747Z,0.75
2019-01-03T00:26:02.929Z,1.00
2019-01-03T00:28:36.010Z,0.90
2019-01-03T00:31:05.069Z,0.90
2019-01-03T00:33:35.398Z,0.80
2019-01-03T00:36:08.141Z,1.17
2019-01-03T00:38:46.932Z,1.07
2019-01-03T00:41:16.998Z,1.22
2019-01-03T00:44:02.836Z,0.70
2019-01-03T00:46:38.598Z,1.47
2019-01-03T00:49:08.678Z,0.90
2019-01-03T00:51:54.903Z,0.85
2019-01-03T00:54:40.946Z,1.20
2019-01-03T00:57:27.072Z,0.70
2019-01-03T01:00:00.521Z,1.27
2019-01-03T01:02:36.442Z,0.93
2019-01-03T01:05:07.410Z,0.70
2019-01-03T01:07:42.945Z,0.93
2019-01-03T01:10:28.346Z,1.10
2019-01-03T01:13:14.693Z,1.52
2019-01-03T01:15:45.097Z,1.00
2019-01-03T01:18:31.124Z,1.22
2019-01-03T01:21:01.201Z,0.72
2019-01-03T01:23:47.440Z,0.70
2019-01-03T01:26:33.841Z,0.80
2019-01-03T01:29:13.002Z,0.60
2019-01-03T01:31:51.957Z,1.20
2019-01-03T01:34:25.046Z,1.00
2019-01-03T01:36:58.134Z,1.25
2019-01-03T01:39:33.928Z,1.02
2019-01-03T01:42:10.211Z,1.10
2019-01-03T01:44:49.304Z,1.00
2019-01-03T01:47:35.649Z,0.98
2019-01-03T01:50:07.514Z,1.00
2019-01-03T01:52:52.437Z,0.98
2019-01-03T01:55:25.219Z,0.95
2019-01-03T01:58:07.418Z,1.12
2019-01-03T02:00:37.498Z,1.00
2019-01-03T02:03:07.662Z,1.00
2019-01-03T02:05:53.822Z,0.75
2019-01-03T02:08:23.945Z,0.70
2019-01-03T02:11:10.022Z,1.02
2019-01-03T02:13:49.201Z,1.02
2019-01-03T02:16:21.970Z,0.82
2019-01-03T02:18:55.116Z,1.00
2019-01-03T02:21:25.190Z,0.90
2019-01-03T02:23:55.528Z,0.72
2019-01-03T02:26:42.050Z,0.90
2019-01-03T02:29:14.844Z,0.70
2019-01-03T02:32:00.930Z,1.22
2019-01-03T02:34:31.246Z,0.90
2019-01-03T02:37:04.038Z,0.78
2019-01-03T02:39:37.045Z,0.60
2019-01-03T02:42:07.361Z,0.90
2019-01-03T02:44:37.711Z,0.93
2019-01-03T02:47:25.910Z,0.80
2019-01-03T02:50:14.117Z,1.07
2019-01-03T02:52:47.005Z,0.80
2019-01-03T02:55:26.525Z,1.67
2019-01-03T02:58:00.146Z,0.98
2019-01-03T03:00:30.484Z,0.60
2019-01-03T03:03:03.023Z,0.53
2019-01-03T03:05:33.099Z,1.02
2019-01-03T03:08:18.017Z,0.82
2019-01-03T03:11:00.091Z,0.85
2019-01-03T03:13:47.969Z,0.98
2019-01-03T03:16:34.224Z,0.80
2019-01-03T03:19:07.249Z,1.35
2019-01-03T03:21:46.710Z,0.90
2019-01-03T03:24:19.810Z,0.88
2019-01-03T03:26:56.199Z,0.80
2019-01-03T03:29:43.146Z,0.90
2019-01-03T03:32:19.233Z,0.90
2019-01-03T03:35:05.532Z,0.90
2019-01-03T03:37:41.652Z,1.67
2019-01-03T03:40:12.136Z,0.98
2019-01-03T03:43:00.198Z,0.93
2019-01-03T03:45:33.249Z,0.70
2019-01-03T03:48:18.655Z,1.12
2019-01-03T03:50:58.235Z,1.05
2019-01-03T03:53:44.505Z,0.95
2019-01-03T03:56:29.375Z,0.98
2019-01-03T03:59:15.128Z,0.50
2019-01-03T04:01:45.209Z,1.02
2019-01-03T04:04:31.469Z,1.00
2019-01-03T04:07:16.638Z,1.00
2019-01-03T04:09:52.910Z,0.60
2019-01-03T04:12:25.790Z,0.85
2019-01-03T04:15:04.429Z,0.60
2019-01-03T04:17:40.120Z,0.50
2019-01-03T04:20:12.983Z,0.70
2019-01-03T04:22:54.899Z,0.80
2019-01-03T04:25:25.241Z,0.90
2019-01-03T04:28:10.234Z,0.60
2019-01-03T04:30:43.279Z,0.70
2019-01-03T04:33:27.940Z,0.70
2019-01-03T04:36:14.286Z,0.78
2019-01-03T04:39:00.406Z,1.05
2019-01-03T04:41:46.773Z,0.88
2019-01-03T04:44:17.097Z,0.70
2019-01-03T04:46:53.074Z,0.90
2019-01-03T04:49:25.999Z,0.75
2019-01-03T04:51:59.064Z,0.50
2019-01-03T04:54:32.104Z,0.70
2019-01-03T04:57:14.343Z,1.20
2019-01-03T04:59:53.206Z,1.37
2019-01-03T05:02:29.101Z,1.82
2019-01-03T05:05:05.147Z,0.78
2019-01-03T05:07:51.822Z,1.02
2019-01-03T05:10:24.313Z,0.57
2019-01-03T05:13:10.161Z,1.40
2019-01-03T05:15:56.590Z,0.88
2019-01-03T05:18:35.729Z,0.90
2019-01-03T05:21:08.379Z,1.50
2019-01-03T05:23:57.443Z,0.98
2019-01-03T05:26:28.622Z,0.85
2019-01-03T05:29:05.035Z,1.00
2019-01-03T05:31:35.123Z,0.90
2019-01-03T05:34:13.957Z,0.88
2019-01-03T05:36:46.951Z,1.10
2019-01-03T05:39:33.267Z,0.65
2019-01-03T05:42:19.321Z,0.78
2019-01-03T05:45:07.493Z,1.02
2019-01-03T05:47:37.571Z,1.00
2019-01-03T05:50:16.805Z,1.10
2019-01-03T05:52:49.790Z,0.75
2019-01-03T05:55:28.626Z,0.70
2019-01-03T05:57:58.956Z,0.88
2019-01-03T06:00:40.879Z,1.02
2019-01-03T06:03:26.989Z,0.70
2019-01-03T06:06:09.477Z,0.70
2019-01-03T06:08:46.781Z,0.80
2019-01-03T06:11:19.707Z,0.88
2019-01-03T06:14:07.656Z,0.80
2019-01-03T06:16:52.940Z,0.80
2019-01-03T06:19:34.567Z,0.90
2019-01-03T06:22:13.497Z,0.88
2019-01-03T06:24:59.649Z,0.90
2019-01-03T06:27:29.798Z,0.60
2019-01-03T06:30:16.098Z,0.80
2019-01-03T06:33:01.186Z,1.37
2019-01-03T06:35:47.621Z,1.10
2019-01-03T06:38:20.917Z,0.90
2019-01-03T06:40:51.245Z,0.90
2019-01-03T06:43:24.026Z,1.00
2019-01-03T06:46:09.813Z,1.70
2019-01-03T06:48:46.185Z,1.07
2019-01-03T06:51:16.257Z,1.52
2019-01-03T06:54:02.332Z,0.90
2019-01-03T06:56:48.761Z,1.30
2019-01-03T06:59:24.822Z,1.20
2019-01-03T07:02:00.778Z,1.12
2019-01-03T07:04:33.633Z,1.02
2019-01-03T07:07:15.948Z,0.90
2019-01-03T07:09:54.761Z,0.95
2019-01-03T07:12:30.817Z,1.25
2019-01-03T07:15:01.133Z,1.12
2019-01-03T07:17:34.185Z,1.40
2019-01-03T07:20:07.224Z,1.47
2019-01-03T07:22:43.390Z,1.10
2019-01-03T07:25:13.539Z,0.98
2019-01-03T07:27:43.589Z,1.15
2019-01-03T07:30:16.653Z,1.30
2019-01-03T07:33:02.681Z,1.80
2019-01-03T07:35:50.925Z,1.72
2019-01-03T07:38:35.899Z,1.60
2019-01-03T07:41:22.146Z,1.32
2019-01-03T07:43:52.230Z,1.12
2019-01-03T07:46:22.624Z,1.15
2019-01-03T07:49:01.390Z,1.30
2019-01-03T07:51:37.609Z,1.10
2019-01-03T07:54:19.485Z,1.10
2019-01-03T07:56:52.389Z,1.90
2019-01-03T07:59:28.121Z,1.55
2019-01-03T08:02:16.522Z,1.17
2019-01-03T08:04:46.610Z,1.60
2019-01-03T08:07:19.593Z,1.02
2019-01-03T08:10:01.738Z,0.90
2019-01-03T08:12:31.798Z,2.00
2019-01-03T08:15:04.826Z,1.25
2019-01-03T08:17:40.344Z,1.60
2019-01-03T08:20:10.490Z,1.45
2019-01-03T08:22:58.144Z,1.35
2019-01-03T08:25:28.216Z,1.90
2019-01-03T08:28:17.734Z,2.00
2019-01-03T08:30:53.647Z,2.08
2019-01-03T08:33:32.304Z,1.35
2019-01-03T08:36:19.965Z,1.20
2019-01-03T08:38:50.287Z,1.10
2019-01-03T08:41:35.793Z,2.35
2019-01-03T08:44:11.958Z,2.05
2019-01-03T08:46:42.283Z,1.75
2019-01-03T08:49:28.581Z,1.22
2019-01-03T08:52:01.641Z,1.80
2019-01-03T08:54:31.979Z,1.27
2019-01-03T08:57:05.122Z,1.22
2019-01-03T08:59:37.893Z,1.32
2019-01-03T09:02:23.349Z,2.00
2019-01-03T09:04:56.181Z,1.50
2019-01-03T09:07:32.291Z,1.50
2019-01-03T09:10:02.372Z,1.20
2019-01-03T09:12:35.666Z,1.25
2019-01-03T09:15:06.477Z,1.37
2019-01-03T09:17:52.637Z,1.80
2019-01-03T09:20:40.573Z,1.00
2019-01-03T09:23:13.477Z,1.80
2019-01-03T09:25:55.650Z,1.67
2019-01-03T09:28:31.473Z,1.20
2019-01-03T09:31:04.621Z,1.00
2019-01-03T09:33:46.563Z,1.25
2019-01-03T09:36:16.869Z,1.32
2019-01-03T09:38:49.685Z,1.30
2019-01-03T09:41:20.021Z,1.12
2019-01-03T09:43:53.051Z,1.45
2019-01-03T09:46:21.493Z,1.98
2019-01-03T09:48:49.912Z,1.65
2019-01-03T09:51:19.342Z,1.12
2019-01-03T09:53:47.761Z,1.82
2019-01-03T09:56:16.201Z,1.80
2019-01-03T09:58:44.617Z,0.90
2019-01-03T10:01:13.059Z,1.57
2019-01-03T10:03:42.324Z,1.50
2019-01-03T10:06:10.762Z,1.60
2019-01-03T10:08:39.434Z,1.85
2019-01-03T10:11:07.937Z,1.55
2019-01-03T10:13:36.673Z,1.45
2019-01-03T10:16:05.113Z,1.70
2019-01-03T10:18:33.530Z,1.05
2019-01-03T10:21:01.966Z,1.50
2019-01-03T10:23:30.650Z,1.80
2019-01-03T10:25:59.161Z,1.50
2019-01-03T10:28:27.573Z,1.35
2019-01-03T10:30:56.001Z,1.00
2019-01-03T10:33:24.417Z,1.05
2019-01-03T10:35:53.118Z,1.35
2019-01-03T10:38:21.537Z,1.35
2019-01-03T10:40:50.214Z,2.22
2019-01-03T10:43:18.891Z,1.42
2019-01-03T10:45:47.323Z,1.10
2019-01-03T10:48:15.737Z,0.98
2019-01-03T10:50:44.160Z,1.90
2019-01-03T10:53:12.574Z,1.12
2019-01-03T10:55:41.254Z,0.98
2019-01-03T10:58:09.665Z,1.00
2019-01-03T11:00:38.372Z,0.95
2019-01-03T11:03:07.054Z,1.20
2019-01-03T11:05:35.592Z,1.05
2019-01-03T11:08:04.246Z,0.90
2019-01-03T11:10:32.682Z,1.15
2019-01-03T11:13:01.094Z,1.47
2019-01-03T11:15:29.781Z,1.75
2019-01-03T11:17:58.442Z,1.65
2019-01-03T11:20:27.133Z,1.20
2019-01-03T11:22:55.546Z,1.22
2019-01-03T11:25:23.977Z,1.40
2019-01-03T11:27:52.440Z,1.60
2019-01-03T11:30:20.930Z,1.37
2019-01-03T11:32:49.606Z,1.22
2019-01-03T11:35:18.273Z,1.30
2019-01-03T11:37:46.704Z,1.12
2019-01-03T11:40:15.365Z,1.50
2019-01-03T11:42:43.800Z,1.30
2019-01-03T11:45:12.729Z,1.30
2019-01-03T11:47:41.166Z,1.45
2019-01-03T11:50:10.541Z,1.82
2019-01-03T11:52:39.225Z,1.15
2019-01-03T11:55:07.642Z,1.65
2019-01-03T11:57:36.330Z,1.92
2019-01-03T12:00:07.897Z,1.27
2019-01-03T12:02:36.573Z,1.72
2019-01-03T12:05:07.076Z,1.75
2019-01-03T12:07:35.753Z,1.37
2019-01-03T12:10:04.908Z,2.15
2019-01-03T12:12:33.589Z,1.70
2019-01-03T12:15:02.334Z,1.50
2019-01-03T12:17:31.022Z,2.00
2019-01-03T12:19:59.686Z,2.12
2019-01-03T12:22:28.117Z,2.02
2019-01-03T12:24:56.540Z,1.70
2019-01-03T12:27:25.217Z,2.05
2019-01-03T12:29:53.890Z,2.25
2019-01-03T12:32:22.779Z,2.00
2019-01-03T12:34:51.199Z,2.50
2019-01-03T12:37:19.879Z,1.80
2019-01-03T12:39:48.539Z,2.08
2019-01-03T12:42:16.965Z,2.15
2019-01-03T12:44:45.383Z,2.20
2019-01-03T12:47:14.890Z,1.67
2019-01-03T12:49:43.302Z,1.70
2019-01-03T12:52:11.733Z,1.80
2019-01-03T12:54:40.410Z,2.65
2019-01-03T12:57:08.838Z,1.82
2019-01-03T12:59:37.794Z,2.40
2019-01-03T13:02:06.649Z,1.60
2019-01-03T13:04:35.069Z,2.00
2019-01-03T13:07:03.501Z,1.60
2019-01-03T13:09:32.169Z,3.02
2019-01-03T13:12:00.692Z,2.52
2019-01-03T13:14:29.125Z,2.58
2019-01-03T13:16:57.529Z,3.08
2019-01-03T13:19:25.957Z,2.75
2019-01-03T13:21:54.377Z,2.83
2019-01-03T13:24:22.854Z,2.20
2019-01-03T13:26:51.533Z,2.62
2019-01-03T13:29:20.217Z,2.75
2019-01-03T13:31:48.894Z,1.80
2019-01-03T13:34:17.393Z,2.55
2019-01-03T13:36:45.825Z,1.80
2019-01-03T13:39:14.241Z,2.00
2019-01-03T13:41:42.678Z,2.50
2019-01-03T13:44:11.089Z,2.17
2019-01-03T13:46:39.781Z,2.12
2019-01-03T13:49:08.702Z,2.17
2019-01-03T13:51:37.125Z,2.27
2019-01-03T13:54:05.802Z,2.20
2019-01-03T13:56:34.234Z,2.52
2019-01-03T13:59:02.674Z,2.55
2019-01-03T14:01:31.370Z,3.12
2019-01-03T14:03:59.781Z,3.10
2019-01-03T14:06:29.761Z,1.75
2019-01-03T14:08:58.175Z,2.72
2019-01-03T14:11:26.609Z,2.65
2019-01-03T14:13:55.098Z,2.42
2019-01-03T14:16:23.599Z,2.92
2019-01-03T14:18:52.290Z,2.60
2019-01-03T14:21:20.720Z,2.40
2019-01-03T14:23:49.142Z,2.75
2019-01-03T14:26:17.573Z,2.75
2019-01-03T14:28:46.233Z,3.10
2019-01-03T14:31:14.666Z,2.27
2019-01-03T14:33:43.081Z,2.87
2019-01-03T14:36:11.510Z,3.40
2019-01-03T14:38:39.927Z,3.30
2019-01-03T14:41:08.664Z,2.45
2019-01-03T14:43:37.338Z,3.75
2019-01-03T14:46:05.771Z,2.85
2019-01-03T14:48:34.455Z,3.25
2019-01-03T14:51:03.133Z,3.12
2019-01-03T14:53:31.622Z,3.10
2019-01-03T14:56:00.313Z,3.80
2019-01-03T14:58:28.726Z,2.85
2019-01-03T15:00:57.391Z,3.30
2019-01-03T15:03:26.074Z,3.12
2019-01-03T15:05:54.486Z,2.87
2019-01-03T15:08:22.945Z,2.72
2019-01-03T15:10:51.631Z,3.15
2019-01-03T15:13:20.374Z,3.40
2019-01-03T15:15:49.130Z,2.80
2019-01-03T15:18:17.824Z,2.90
2019-01-03T15:20:46.509Z,3.12
2019-01-03T15:23:14.944Z,3.40
2019-01-03T15:25:43.621Z,3.40
2019-01-03T15:28:12.053Z,3.20
2019-01-03T15:30:40.717Z,4.10
2019-01-03T15:33:09.150Z,3.40
2019-01-03T15:35:37.814Z,3.15
2019-01-03T15:38:06.245Z,2.85
2019-01-03T15:40:34.678Z,3.70
2019-01-03T15:43:03.104Z,3.42
2019-01-03T15:45:31.521Z,3.77
2019-01-03T15:47:59.957Z,3.00
2019-01-03T15:50:28.400Z,3.47
2019-01-03T15:52:56.885Z,3.62
2019-01-03T15:55:25.302Z,3.80
2019-01-03T15:57:54.010Z,3.55
2019-01-03T16:00:22.425Z,2.80
2019-01-03T16:02:50.857Z,3.50
2019-01-03T16:05:19.277Z,4.35
2019-01-03T16:07:47.718Z,3.95
2019-01-03T16:10:16.132Z,3.50
2019-01-03T16:12:44.937Z,4.08
2019-01-03T16:15:13.417Z,3.95
2019-01-03T16:17:41.859Z,3.98
2019-01-03T16:20:10.277Z,4.20
2019-01-03T16:22:38.710Z,4.58
2019-01-03T16:25:07.203Z,8.98
2019-01-03T16:27:35.882Z,4.70
2019-01-03T16:30:06.790Z,4.75
2019-01-03T16:32:35.302Z,5.33
2019-01-03T16:35:04.058Z,6.22
2019-01-03T16:37:32.477Z,5.92
2019-01-03T16:40:01.031Z,7.90
2019-01-03T16:42:40.461Z,4.53
2019-01-03T16:45:11.090Z,5.95
2019-01-03T16:47:39.774Z,5.58
2019-01-03T16:50:13.733Z,4.50
2019-01-03T16:52:42.165Z,5.50
2019-01-03T16:55:10.896Z,5.85
2019-01-03T16:57:39.573Z,6.10
2019-01-03T17:00:10.781Z,5.35
2019-01-03T17:02:39.213Z,5.60
2019-01-03T17:05:07.765Z,5.28
2019-01-03T17:07:36.178Z,5.65
2019-01-03T17:10:11.122Z,5.58
2019-01-03T17:12:39.778Z,5.35
2019-01-03T17:15:08.692Z,6.53
2019-01-03T17:17:37.422Z,6.30
2019-01-03T17:20:08.897Z,5.08
2019-01-03T17:22:37.312Z,5.42
2019-01-03T17:25:08.705Z,5.85
2019-01-03T17:27:37.198Z,5.87
2019-01-03T17:30:08.235Z,5.30
2019-01-03T17:32:36.896Z,5.30
2019-01-03T17:35:08.166Z,6.30
2019-01-03T17:37:36.846Z,5.47
2019-01-03T17:40:08.281Z,5.47
2019-01-03T17:42:36.892Z,4.95
2019-01-03T17:45:08.061Z,4.92
2019-01-03T17:47:36.481Z,5.25
2019-01-03T17:50:08.566Z,4.10
2019-01-03T17:52:37.238Z,5.25
2019-01-03T17:55:07.681Z,5.12
2019-01-03T17:57:36.228Z,4.95
2019-01-03T18:00:08.173Z,5.45
2019-01-03T18:02:36.834Z,5.20
2019-01-03T18:05:05.433Z,4.10
2019-01-03T18:07:33.853Z,5.70
2019-01-03T18:10:02.621Z,5.90
2019-01-03T18:12:31.037Z,5.42
2019-01-03T18:14:59.477Z,5.87
2019-01-03T18:17:28.149Z,5.65
2019-01-03T18:19:56.834Z,4.58
2019-01-03T18:22:28.074Z,4.72
2019-01-03T18:24:56.803Z,4.75
2019-01-03T18:27:25.245Z,4.28
2019-01-03T18:29:53.909Z,5.37
2019-01-03T18:32:22.342Z,6.20
2019-01-03T18:34:51.050Z,5.22
2019-01-03T18:37:19.759Z,5.40
2019-01-03T18:39:48.192Z,5.35
2019-01-03T18:42:16.902Z,5.75
2019-01-03T18:44:45.586Z,4.78
2019-01-03T18:47:14.005Z,5.97
2019-01-03T18:49:42.437Z,4.70
2019-01-03T18:52:11.101Z,5.62
2019-01-03T18:54:39.547Z,4.72
2019-01-03T18:57:07.958Z,7.10
2019-01-03T18:59:36.390Z,5.10
2019-01-03T19:02:04.808Z,6.12
2019-01-03T19:04:33.498Z,6.03
2019-01-03T19:07:01.913Z,6.33
2019-01-03T19:09:30.335Z,7.08
2019-01-03T19:11:58.777Z,5.47
2019-01-03T19:14:27.459Z,6.90
2019-01-03T19:16:55.897Z,5.72
2019-01-03T19:19:24.593Z,6.83
2019-01-03T19:21:53.270Z,4.92
2019-01-03T19:24:21.681Z,5.58
2019-01-03T19:26:50.113Z,6.95
2019-01-03T19:29:18.777Z,6.85
2019-01-03T19:31:47.281Z,5.78
2019-01-03T19:34:15.942Z,6.33
2019-01-03T19:36:44.381Z,7.30
2019-01-03T19:39:12.797Z,7.35
2019-01-03T19:41:41.487Z,6.10
2019-01-03T19:44:10.153Z,6.03
2019-01-03T19:46:38.594Z,4.90
2019-01-03T19:49:07.005Z,5.85
2019-01-03T19:51:35.433Z,5.08
2019-01-03T19:54:04.198Z,6.50
2019-01-03T19:56:32.623Z,6.15
2019-01-03T19:59:01.054Z,5.20
2019-01-03T20:01:29.641Z,5.90
2019-01-03T20:03:58.069Z,5.92
2019-01-03T20:06:26.864Z,5.22
2019-01-03T20:08:55.322Z,5.22
2019-01-03T20:11:23.992Z,5.97
2019-01-03T20:13:52.669Z,5.00
2019-01-03T20:16:21.770Z,5.05
2019-01-03T20:18:50.204Z,6.40
2019-01-03T20:21:18.697Z,5.12
2019-01-03T20:23:47.467Z,5.30
2019-01-03T20:26:15.907Z,5.75
2019-01-03T20:28:44.590Z,5.50
2019-01-03T20:31:13.265Z,6.20
2019-01-03T20:33:42.236Z,6.08
2019-01-03T20:36:10.910Z,6.75
2019-01-03T20:38:39.337Z,5.95
2019-01-03T20:41:07.996Z,6.08
2019-01-03T20:43:39.374Z,8.00
2019-01-03T20:46:06.822Z,7.40
2019-01-03T20:48:35.510Z,8.48
2019-01-03T20:51:04.346Z,6.33
2019-01-03T20:53:32.789Z,9.15
2019-01-03T20:56:01.449Z,7.67
2019-01-03T20:58:29.879Z,4.80
2019-01-03T21:00:58.311Z,6.97
2019-01-03T21:03:26.973Z,4.97
2019-01-03T21:05:55.661Z,5.53
2019-01-03T21:08:24.357Z,5.47
2019-01-03T21:10:53.017Z,3.27
2019-01-03T21:13:21.446Z,5.53
2019-01-03T21:15:49.881Z,3.30
2019-01-03T21:18:18.303Z,5.00
2019-01-03T21:20:46.734Z,5.67
2019-01-03T21:23:15.161Z,5.60
2019-01-03T21:25:43.582Z,4.97
2019-01-03T21:28:12.008Z,4.65
2019-01-03T21:30:40.449Z,4.37
2019-01-03T21:33:09.109Z,4.75
2019-01-03T21:35:37.789Z,4.12
2019-01-03T21:38:06.473Z,3.87
2019-01-03T21:40:35.136Z,5.33
2019-01-03T21:43:03.834Z,5.12
2019-01-03T21:45:32.270Z,6.80
2019-01-03T21:48:00.757Z,4.28
2019-01-03T21:50:29.442Z,6.90
2019-01-03T21:52:57.874Z,4.60
2019-01-03T21:55:26.285Z,6.12
2019-01-03T21:57:54.717Z,3.98
2019-01-03T22:00:23.149Z,5.10
2019-01-03T22:02:51.816Z,4.83
2019-01-03T22:05:20.509Z,5.90
2019-01-03T22:07:49.169Z,4.92
2019-01-03T22:10:17.889Z,5.95
2019-01-03T22:12:46.373Z,5.70
2019-01-03T22:15:14.918Z,5.17
2019-01-03T22:17:43.346Z,5.50
2019-01-03T22:20:11.761Z,4.50
2019-01-03T22:22:40.450Z,5.03
2019-01-03T22:25:09.197Z,6.08
2019-01-03T22:27:37.617Z,5.17
2019-01-03T22:30:09.042Z,5.35
2019-01-03T22:32:37.452Z,6.28
2019-01-03T22:35:06.921Z,4.50
2019-01-03T22:37:35.618Z,5.75
2019-01-03T22:40:04.937Z,5.10
2019-01-03T22:42:33.701Z,5.28
2019-01-03T22:45:02.441Z,4.45
2019-01-03T22:47:30.864Z,5.28
2019-01-03T22:49:59.622Z,4.87
2019-01-03T22:52:28.293Z,7.35
2019-01-03T22:54:56.757Z,6.15
2019-01-03T22:57:25.433Z,6.90
2019-01-03T22:59:54.116Z,6.75
2019-01-03T23:02:22.549Z,6.03
2019-01-03T23:04:51.038Z,5.83
2019-01-03T23:07:19.469Z,6.70
2019-01-03T23:09:48.133Z,6.55
2019-01-03T23:12:16.571Z,7.35
2019-01-03T23:14:44.992Z,5.37
2019-01-03T23:17:13.505Z,6.10
2019-01-03T23:19:41.925Z,7.30
2019-01-03T23:22:10.379Z,5.78
2019-01-03T23:24:39.162Z,4.75
2019-01-03T23:27:07.608Z,5.60
2019-01-03T23:29:36.008Z,5.80
2019-01-03T23:32:04.781Z,4.72
2019-01-03T23:34:33.458Z,6.28
2019-01-03T23:37:01.969Z,6.87
2019-01-03T23:39:30.394Z,5.20
2019-01-03T23:41:58.825Z,6.62
2019-01-03T23:44:27.506Z,6.10
2019-01-03T23:46:55.945Z,7.03
2019-01-03T23:49:24.366Z,5.17
2019-01-03T23:51:52.806Z,6.30
2019-01-03T23:54:21.225Z,5.65
2019-01-03T23:56:49.913Z,5.62
2019-01-03T23:59:18.405Z,5.75
